Terminal Aerodrome Forecast
Issued by NWS

Current Version | Previous Version | Text Only | Print | Product List | Glossary On
Versions: 1 2 3 4 5 6 7 8 9 10 11 12 13 14 15 16 17 18
000
FTAK31 PAJN 200538
TAFAKT
TAF
PAKT 200538Z 2006/2106 VRB04KT P6SM BKN150
     FM200900 14006KT P6SM SCT020 OVC060
     FM210200 14013G20KT P6SM SCT025 BKN050 WS020/15030KT PROB30
      2102/2106 -RA
      AMD LTD TO CLD VIS AND WIND 2006/2015=

USA.gov is the U.S. government's official web portal to all federal, state and local government web resources and services.